createdAt,value
2018-09-27T00:00:25.407Z,96933.00
2018-09-27T00:02:54.891Z,96930.00
2018-09-27T00:05:25.205Z,96938.00
2018-09-27T00:07:54.760Z,96936.00
2018-09-27T00:10:24.246Z,96936.00
2018-09-27T00:12:53.684Z,96936.00
2018-09-27T00:15:23.322Z,96938.00
2018-09-27T00:17:52.896Z,96929.00
2018-09-27T00:20:22.730Z,96913.00
2018-09-27T00:22:52.572Z,96919.00
2018-09-27T00:25:22.285Z,96923.00
2018-09-27T00:27:52.533Z,96922.00
2018-09-27T00:30:22.141Z,96918.00
2018-09-27T00:32:51.901Z,96920.00
2018-09-27T00:35:22.208Z,96925.00
2018-09-27T00:37:53.718Z,96920.00
2018-09-27T00:40:24.392Z,96919.00
2018-09-27T00:42:53.833Z,96914.00
2018-09-27T00:45:23.369Z,96907.00
2018-09-27T00:47:52.803Z,96908.00
2018-09-27T00:50:23.939Z,96901.00
2018-09-27T00:52:53.529Z,96909.00
2018-09-27T00:55:22.880Z,96912.00
2018-09-27T00:57:52.323Z,96907.00
2018-09-27T01:00:21.834Z,96904.00
2018-09-27T01:02:52.734Z,96890.00
2018-09-27T01:05:22.196Z,96907.00
2018-09-27T01:07:51.638Z,96892.00
2018-09-27T01:10:21.368Z,96897.00
2018-09-27T01:12:51.584Z,96894.00
2018-09-27T01:15:21.151Z,96896.00
2018-09-27T01:17:50.627Z,96888.00
2018-09-27T01:20:20.743Z,96891.00
2018-09-27T01:22:51.577Z,96892.00
2018-09-27T01:25:20.981Z,96889.00
2018-09-27T01:27:50.617Z,96893.00
2018-09-27T01:30:20.099Z,96895.00
2018-09-27T01:32:50.106Z,96894.00
2018-09-27T01:35:20.499Z,96891.00
2018-09-27T01:37:50.145Z,96889.00
2018-09-27T01:40:20.221Z,96890.00
2018-09-27T01:42:50.400Z,96891.00
2018-09-27T01:45:19.992Z,96898.00
2018-09-27T01:47:50.228Z,96884.00
2018-09-27T01:50:19.676Z,96888.00
2018-09-27T01:52:49.822Z,96887.00
2018-09-27T01:55:19.466Z,96888.00
2018-09-27T01:57:49.258Z,96897.00
2018-09-27T02:00:19.176Z,96890.00
2018-09-27T02:02:48.777Z,96882.00
2018-09-27T02:05:18.478Z,96881.00
2018-09-27T02:07:48.033Z,96898.00
2018-09-27T02:10:17.655Z,96895.00
2018-09-27T02:12:48.475Z,96887.00
2018-09-27T02:15:18.193Z,96892.00
2018-09-27T02:17:48.535Z,96893.00
2018-09-27T02:20:18.118Z,96901.00
2018-09-27T02:22:48.275Z,96914.00
2018-09-27T02:25:18.467Z,96905.00
2018-09-27T02:27:48.201Z,96895.00
2018-09-27T02:30:17.872Z,96892.00
2018-09-27T02:32:47.890Z,96892.00
2018-09-27T02:35:17.965Z,96890.00
2018-09-27T02:37:47.471Z,96884.00
2018-09-27T02:40:17.140Z,96882.00
2018-09-27T02:42:46.828Z,96887.00
2018-09-27T02:45:17.135Z,96892.00
2018-09-27T02:47:47.228Z,96878.00
2018-09-27T02:50:16.667Z,96880.00
2018-09-27T02:52:47.196Z,96881.00
2018-09-27T02:55:17.427Z,96883.00
2018-09-27T02:57:48.200Z,96879.00
2018-09-27T03:00:17.891Z,96886.00
2018-09-27T03:02:47.354Z,96879.00
2018-09-27T03:05:16.928Z,96870.00
2018-09-27T03:07:46.446Z,96877.00
2018-09-27T03:10:15.884Z,96874.00
2018-09-27T03:12:45.438Z,96871.00
2018-09-27T03:15:15.088Z,96876.00
2018-09-27T03:17:44.666Z,96879.00
2018-09-27T03:20:14.380Z,96881.00
2018-09-27T03:22:43.830Z,96882.00
2018-09-27T03:25:13.316Z,96878.00
2018-09-27T03:27:43.059Z,96870.00
2018-09-27T03:30:13.718Z,96862.00
2018-09-27T03:32:43.248Z,96866.00
2018-09-27T03:35:12.842Z,96863.00
2018-09-27T03:37:42.588Z,96861.00
2018-09-27T03:40:12.213Z,96851.00
2018-09-27T03:42:41.699Z,96864.00
2018-09-27T03:45:11.203Z,96862.00
2018-09-27T03:47:40.833Z,96853.00
2018-09-27T03:50:10.421Z,96847.00
2018-09-27T03:52:40.163Z,96859.00
2018-09-27T03:55:11.840Z,96856.00
2018-09-27T03:57:41.765Z,96855.00
2018-09-27T04:00:11.647Z,96857.00
2018-09-27T04:02:42.894Z,96853.00
2018-09-27T04:05:12.484Z,96862.00
2018-09-27T04:07:43.123Z,96865.00
2018-09-27T04:10:12.835Z,96861.00
2018-09-27T04:12:43.414Z,96864.00
2018-09-27T04:15:18.777Z,96858.00
2018-09-27T04:17:48.447Z,96847.00
2018-09-27T04:20:19.163Z,96851.00
2018-09-27T04:22:49.422Z,96854.00
2018-09-27T04:25:19.604Z,96842.00
2018-09-27T04:27:49.913Z,96830.00
2018-09-27T04:30:19.588Z,96835.00
2018-09-27T04:32:51.286Z,96833.00
2018-09-27T04:35:20.771Z,96839.00
2018-09-27T04:37:50.952Z,96825.00
2018-09-27T04:40:20.984Z,96837.00
2018-09-27T04:42:50.424Z,96839.00
2018-09-27T04:45:20.028Z,96830.00
2018-09-27T04:47:50.377Z,96836.00
2018-09-27T04:50:20.022Z,96834.00
2018-09-27T04:52:49.558Z,96830.00
2018-09-27T04:55:19.142Z,96831.00
2018-09-27T04:57:50.436Z,96833.00
2018-09-27T05:00:21.010Z,96834.00
2018-09-27T05:02:50.677Z,96829.00
2018-09-27T05:05:20.493Z,96836.00
2018-09-27T05:07:50.303Z,96836.00
2018-09-27T05:10:19.865Z,96835.00
2018-09-27T05:12:50.149Z,96838.00
2018-09-27T05:15:20.344Z,96838.00
2018-09-27T05:17:50.270Z,96842.00
2018-09-27T05:20:20.678Z,96838.00
2018-09-27T05:22:50.418Z,96833.00
2018-09-27T05:25:20.512Z,96832.00
2018-09-27T05:27:50.852Z,96828.00
2018-09-27T05:30:20.584Z,96832.00
2018-09-27T05:32:50.382Z,96832.00
2018-09-27T05:35:21.374Z,96841.00
2018-09-27T05:37:51.689Z,96827.00
2018-09-27T05:40:21.425Z,96835.00
2018-09-27T05:42:51.197Z,96836.00
2018-09-27T05:45:21.138Z,96828.00
2018-09-27T05:47:52.242Z,96820.00
2018-09-27T05:50:22.145Z,96824.00
2018-09-27T05:52:52.796Z,96823.00
2018-09-27T05:55:22.920Z,96822.00
2018-09-27T05:57:52.402Z,96822.00
2018-09-27T06:00:21.947Z,96819.00
2018-09-27T06:02:52.396Z,96825.00
2018-09-27T06:05:22.235Z,96823.00
2018-09-27T06:07:51.947Z,96822.00
2018-09-27T06:10:23.025Z,96821.00
2018-09-27T06:12:52.505Z,96824.00
2018-09-27T06:15:22.155Z,96818.00
2018-09-27T06:17:51.680Z,96825.00
2018-09-27T06:20:21.267Z,96816.00
2018-09-27T06:22:51.345Z,96825.00
2018-09-27T06:25:27.588Z,96827.00
2018-09-27T06:27:57.298Z,96827.00
2018-09-27T06:30:27.861Z,96832.00
2018-09-27T06:32:57.451Z,96829.00
2018-09-27T06:35:28.097Z,96824.00
2018-09-27T06:37:58.649Z,96827.00
2018-09-27T06:40:28.301Z,96818.00
2018-09-27T06:42:57.962Z,96811.00
2018-09-27T06:45:27.750Z,96814.00
2018-09-27T06:47:57.713Z,96805.00
2018-09-27T06:50:27.366Z,96813.00
2018-09-27T06:52:57.764Z,96816.00
2018-09-27T06:55:28.920Z,96812.00
2018-09-27T06:57:59.212Z,96804.00
2018-09-27T07:00:29.294Z,96804.00
2018-09-27T07:02:59.498Z,96798.00
2018-09-27T07:05:29.628Z,96794.00
2018-09-27T07:07:59.446Z,96795.00
2018-09-27T07:10:29.052Z,96803.00
2018-09-27T07:12:59.873Z,96800.00
2018-09-27T07:15:31.709Z,96801.00
2018-09-27T07:18:02.575Z,96805.00
2018-09-27T07:20:32.434Z,96806.00
2018-09-27T07:23:02.246Z,96811.00
2018-09-27T07:25:36.924Z,96812.00
2018-09-27T07:28:06.971Z,96815.00
2018-09-27T07:30:36.887Z,96811.00
2018-09-27T07:33:07.712Z,96806.00
2018-09-27T07:35:37.792Z,96808.00
2018-09-27T07:38:08.709Z,96815.00
2018-09-27T07:40:38.380Z,96806.00
2018-09-27T07:43:08.518Z,96803.00
2018-09-27T07:45:38.351Z,96806.00
2018-09-27T07:48:07.903Z,96818.00
2018-09-27T07:50:39.272Z,96811.00
2018-09-27T07:53:09.013Z,96808.00
2018-09-27T07:55:39.136Z,96800.00
2018-09-27T07:58:11.605Z,96802.00
2018-09-27T08:00:41.213Z,96808.00
2018-09-27T08:03:10.971Z,96807.00
2018-09-27T08:05:41.619Z,96804.00
2018-09-27T08:08:11.832Z,96802.00
2018-09-27T08:10:41.515Z,96802.00
2018-09-27T08:13:11.589Z,96800.00
2018-09-27T08:15:41.676Z,96805.00
2018-09-27T08:18:11.286Z,96802.00
2018-09-27T08:20:41.081Z,96802.00
2018-09-27T08:23:10.440Z,96800.00
2018-09-27T08:25:40.681Z,96798.00
2018-09-27T08:28:11.124Z,96802.00
2018-09-27T08:30:42.485Z,96803.00
2018-09-27T08:33:11.819Z,96801.00
2018-09-27T08:35:41.421Z,96805.00
2018-09-27T08:38:10.842Z,96796.00
2018-09-27T08:40:40.951Z,96804.00
2018-09-27T08:43:10.918Z,96801.00
2018-09-27T08:45:40.673Z,96798.00
2018-09-27T08:48:10.723Z,96792.00
2018-09-27T08:50:41.226Z,96795.00
2018-09-27T08:53:11.119Z,96787.00
2018-09-27T08:55:40.860Z,96789.00
2018-09-27T08:58:11.257Z,96782.00
2018-09-27T09:00:40.787Z,96785.00
2018-09-27T09:03:11.539Z,96785.00
2018-09-27T09:05:41.251Z,96774.00
2018-09-27T09:08:10.952Z,96786.00
2018-09-27T09:10:41.195Z,96768.00
2018-09-27T09:13:10.968Z,96763.00
2018-09-27T09:15:41.636Z,96757.00
2018-09-27T09:18:11.734Z,96764.00
2018-09-27T09:20:41.266Z,96768.00
2018-09-27T09:23:11.571Z,96757.00
2018-09-27T09:25:41.177Z,96756.00
2018-09-27T09:28:10.639Z,96744.00
2018-09-27T09:30:40.156Z,96746.00
2018-09-27T09:33:11.020Z,96739.00
2018-09-27T09:35:40.541Z,96733.00
2018-09-27T09:38:10.114Z,96734.00
2018-09-27T09:40:39.722Z,96725.00
2018-09-27T09:43:09.208Z,96724.00
2018-09-27T09:45:39.251Z,96715.00
2018-09-27T09:48:09.464Z,96716.00
2018-09-27T09:50:39.224Z,96709.00
2018-09-27T09:53:08.852Z,96710.00
2018-09-27T09:55:38.494Z,96713.00
2018-09-27T09:58:08.980Z,96712.00
2018-09-27T10:00:38.988Z,96716.00
2018-09-27T10:03:09.412Z,96706.00
2018-09-27T10:05:39.218Z,96700.00
2018-09-27T10:08:09.544Z,96692.00
2018-09-27T10:10:39.109Z,96692.00
2018-09-27T10:13:09.135Z,96694.00
2018-09-27T10:15:38.605Z,96688.00
2018-09-27T10:18:09.202Z,96683.00
2018-09-27T10:20:39.897Z,96676.00
2018-09-27T10:23:10.725Z,96679.00
2018-09-27T10:25:41.234Z,96677.00
2018-09-27T10:28:11.182Z,96674.00
2018-09-27T10:30:41.900Z,96670.00
2018-09-27T10:33:11.380Z,96665.00
2018-09-27T10:35:41.027Z,96665.00
2018-09-27T10:38:13.233Z,96667.00
2018-09-27T10:40:43.172Z,96660.00
2018-09-27T10:43:12.686Z,96655.00
2018-09-27T10:45:43.252Z,96653.00
2018-09-27T10:48:12.772Z,96646.00
2018-09-27T10:50:46.514Z,96653.00
2018-09-27T10:53:16.054Z,96644.00
2018-09-27T10:55:47.134Z,96644.00
2018-09-27T10:58:17.818Z,96646.00
2018-09-27T11:00:47.588Z,96641.00
2018-09-27T11:03:18.244Z,96643.00
2018-09-27T11:05:48.365Z,96638.00
2018-09-27T11:08:18.310Z,96637.00
2018-09-27T11:10:48.018Z,96641.00
2018-09-27T11:13:17.595Z,96640.00
2018-09-27T11:15:48.175Z,96634.00
2018-09-27T11:18:18.161Z,96632.00
2018-09-27T11:20:49.250Z,96631.00
2018-09-27T11:23:19.628Z,96624.00
2018-09-27T11:25:49.617Z,96617.00
2018-09-27T11:28:20.384Z,96623.00
2018-09-27T11:31:54.019Z,96614.00
2018-09-27T11:34:23.650Z,96611.00
2018-09-27T11:36:53.250Z,96601.00
2018-09-27T11:39:24.165Z,96601.00
2018-09-27T11:41:53.969Z,96593.00
2018-09-27T11:44:23.723Z,96592.00
2018-09-27T11:46:53.380Z,96592.00
2018-09-27T11:49:22.864Z,96579.00
2018-09-27T11:51:53.326Z,96581.00
2018-09-27T11:54:23.277Z,96575.00
2018-09-27T11:56:52.746Z,96566.00
2018-09-27T11:59:22.604Z,96574.00
2018-09-27T12:01:52.263Z,96570.00
2018-09-27T12:04:21.794Z,96565.00
2018-09-27T12:06:51.585Z,96560.00
2018-09-27T12:09:21.097Z,96559.00
2018-09-27T12:11:50.751Z,96558.00
2018-09-27T12:14:20.750Z,96544.00
2018-09-27T12:16:51.240Z,96547.00
2018-09-27T12:19:21.609Z,96555.00
2018-09-27T12:21:53.121Z,96545.00
2018-09-27T12:26:59.073Z,96546.00
2018-09-27T12:29:28.817Z,96534.00
2018-09-27T12:31:58.410Z,96536.00
2018-09-27T12:34:28.165Z,96527.00
2018-09-27T12:36:58.249Z,96520.00
2018-09-27T12:39:27.852Z,96520.00
2018-09-27T12:41:58.380Z,96518.00
2018-09-27T12:44:27.722Z,96506.00
2018-09-27T12:46:57.374Z,96510.00
2018-09-27T12:49:26.871Z,96508.00
2018-09-27T12:51:56.633Z,96498.00
2018-09-27T12:54:26.853Z,96499.00
2018-09-27T12:56:56.424Z,96495.00
2018-09-27T12:59:26.055Z,96496.00
2018-09-27T13:01:55.798Z,96492.00
2018-09-27T13:04:25.273Z,96490.00
2018-09-27T13:06:55.040Z,96484.00
2018-09-27T13:09:24.756Z,96480.00
2018-09-27T13:11:54.192Z,96474.00
2018-09-27T13:14:24.075Z,96475.00
2018-09-27T13:16:54.001Z,96465.00
2018-09-27T13:19:23.588Z,96462.00
2018-09-27T13:21:53.781Z,96459.00
2018-09-27T13:24:23.807Z,96455.00
2018-09-27T13:26:54.273Z,96451.00
2018-09-27T13:29:23.812Z,96446.00
2018-09-27T13:31:53.441Z,96446.00
2018-09-27T13:34:23.077Z,96441.00
2018-09-27T13:36:52.803Z,96436.00
2018-09-27T13:39:23.571Z,96429.00
2018-09-27T13:41:53.301Z,96427.00
2018-09-27T13:44:23.803Z,96425.00
2018-09-27T13:46:53.556Z,96423.00
2018-09-27T13:49:23.136Z,96409.00
2018-09-27T13:51:52.666Z,96416.00
2018-09-27T13:54:23.270Z,96410.00
2018-09-27T13:56:52.829Z,96410.00
2018-09-27T13:59:22.908Z,96402.00
2018-09-27T14:01:52.985Z,96403.00
2018-09-27T14:04:22.408Z,96401.00
2018-09-27T14:06:51.924Z,96396.00
2018-09-27T14:09:21.589Z,96400.00
2018-09-27T14:11:51.833Z,96395.00
2018-09-27T14:14:21.460Z,96390.00
2018-09-27T14:16:51.738Z,96395.00
2018-09-27T14:19:22.247Z,96386.00
2018-09-27T14:21:51.903Z,96382.00
2018-09-27T14:24:22.274Z,96375.00
2018-09-27T14:26:52.449Z,96379.00
2018-09-27T14:29:22.320Z,96370.00
2018-09-27T14:31:52.156Z,96371.00
2018-09-27T14:34:24.377Z,96365.00
2018-09-27T14:36:54.666Z,96363.00
2018-09-27T14:39:24.622Z,96365.00
2018-09-27T14:41:54.321Z,96352.00
2018-09-27T14:44:24.459Z,96354.00
2018-09-27T14:46:54.559Z,96357.00
2018-09-27T14:49:28.920Z,96347.00
2018-09-27T14:51:58.920Z,96357.00
2018-09-27T14:54:33.144Z,96343.00
2018-09-27T14:57:04.032Z,96346.00
2018-09-27T14:59:34.037Z,96341.00
2018-09-27T15:02:04.480Z,96344.00
2018-09-27T15:04:34.639Z,96336.00
2018-09-27T15:07:04.295Z,96332.00
2018-09-27T15:09:34.102Z,96337.00
2018-09-27T15:12:03.533Z,96336.00
2018-09-27T15:14:33.571Z,96331.00
2018-09-27T15:17:03.063Z,96329.00
2018-09-27T15:19:33.283Z,96331.00
2018-09-27T15:22:03.051Z,96322.00
2018-09-27T15:24:33.238Z,96317.00
2018-09-27T15:27:03.482Z,96319.00
2018-09-27T15:29:33.313Z,96319.00
2018-09-27T15:32:03.429Z,96318.00
2018-09-27T15:34:33.284Z,96321.00
2018-09-27T15:37:03.478Z,96316.00
2018-09-27T15:39:33.968Z,96310.00
2018-09-27T15:42:03.412Z,96317.00
2018-09-27T15:44:33.214Z,96311.00
2018-09-27T15:47:03.470Z,96308.00
2018-09-27T15:49:33.387Z,96307.00
2018-09-27T15:52:03.910Z,96298.00
2018-09-27T15:54:35.489Z,96305.00
2018-09-27T15:57:06.990Z,96302.00
2018-09-27T15:59:37.159Z,96305.00
2018-09-27T16:02:07.645Z,96300.00
2018-09-27T16:04:37.561Z,96296.00
2018-09-27T16:07:08.002Z,96294.00
2018-09-27T16:09:37.803Z,96292.00
2018-09-27T16:12:07.681Z,96284.00
2018-09-27T16:14:37.261Z,96291.00
2018-09-27T16:17:07.563Z,96291.00
2018-09-27T16:19:37.621Z,96283.00
2018-09-27T16:22:07.509Z,96285.00
2018-09-27T16:24:37.450Z,96276.00
2018-09-27T16:27:12.159Z,96271.00
2018-09-27T16:29:45.107Z,96273.00
2018-09-27T16:32:14.662Z,96267.00
2018-09-27T16:34:45.669Z,96274.00
2018-09-27T16:37:19.159Z,96268.00
2018-09-27T16:39:49.105Z,96262.00
2018-09-27T16:42:19.447Z,96263.00
2018-09-27T16:44:55.133Z,96263.00
2018-09-27T16:47:24.859Z,96257.00
2018-09-27T16:49:56.057Z,96252.00
2018-09-27T16:52:25.712Z,96262.00
2018-09-27T16:54:57.630Z,96248.00
2018-09-27T16:57:29.049Z,96247.00
2018-09-27T16:59:59.846Z,96233.00
2018-09-27T17:02:30.272Z,96232.00
2018-09-27T17:05:01.027Z,96238.00
2018-09-27T17:07:32.023Z,96227.00
2018-09-27T17:10:04.437Z,96223.00
2018-09-27T17:12:34.228Z,96234.00
2018-09-27T17:15:17.232Z,96227.00
2018-09-27T17:17:48.680Z,96233.00
2018-09-27T17:20:18.606Z,96231.00
2018-09-27T17:22:52.678Z,96219.00
2018-09-27T17:25:23.806Z,96227.00
2018-09-27T17:27:55.335Z,96219.00
2018-09-27T17:30:26.880Z,96209.00
2018-09-27T17:32:57.631Z,96216.00
2018-09-27T17:35:36.343Z,96216.00
2018-09-27T17:38:06.180Z,96209.00
2018-09-27T17:40:38.820Z,96206.00
2018-09-27T17:43:10.843Z,96211.00
2018-09-27T17:45:52.842Z,96204.00
2018-09-27T17:48:22.994Z,96208.00
2018-09-27T17:50:53.005Z,96199.00
2018-09-27T17:53:24.571Z,96199.00
2018-09-27T17:55:56.420Z,96200.00
2018-09-27T17:58:29.190Z,96193.00
2018-09-27T18:01:04.289Z,96204.00
2018-09-27T18:03:54.649Z,96200.00
2018-09-27T18:06:25.183Z,96196.00
2018-09-27T18:08:55.545Z,96201.00
2018-09-27T18:11:25.471Z,96196.00
2018-09-27T18:13:57.207Z,96195.00
2018-09-27T18:16:28.258Z,96195.00
2018-09-27T18:19:00.401Z,96209.00
2018-09-27T18:21:30.575Z,96202.00
2018-09-27T18:24:01.087Z,96201.00
2018-09-27T18:26:30.908Z,96203.00
2018-09-27T18:29:01.086Z,96202.00
2018-09-27T18:31:32.773Z,96195.00
2018-09-27T18:34:05.666Z,96194.00
2018-09-27T18:36:35.586Z,96195.00
2018-09-27T18:39:11.255Z,96201.00
2018-09-27T18:41:41.432Z,96193.00
2018-09-27T18:44:12.864Z,96202.00
2018-09-27T18:46:43.863Z,96199.00
2018-09-27T18:49:13.820Z,96181.00
2018-09-27T18:51:48.753Z,96188.00
2018-09-27T18:54:20.024Z,96180.00
2018-09-27T18:56:50.006Z,96184.00
2018-09-27T18:59:22.482Z,96188.00
2018-09-27T19:01:59.074Z,96182.00
2018-09-27T19:04:31.683Z,96180.00
2018-09-27T19:07:01.620Z,96177.00
2018-09-27T19:09:31.752Z,96174.00
2018-09-27T19:12:02.849Z,96177.00
2018-09-27T19:14:33.009Z,96176.00
2018-09-27T19:17:03.777Z,96176.00
2018-09-27T19:19:34.462Z,96172.00
2018-09-27T19:22:06.376Z,96174.00
2018-09-27T19:24:38.052Z,96179.00
2018-09-27T19:27:08.417Z,96176.00
2018-09-27T19:29:41.577Z,96178.00
2018-09-27T19:32:12.695Z,96174.00
2018-09-27T19:34:47.273Z,96179.00
2018-09-27T19:37:16.895Z,96176.00
2018-09-27T19:39:46.623Z,96181.00
2018-09-27T19:42:16.348Z,96181.00
2018-09-27T19:44:45.959Z,96175.00
2018-09-27T19:47:15.807Z,96173.00
2018-09-27T19:49:45.408Z,96170.00
2018-09-27T19:52:19.612Z,96170.00
2018-09-27T19:54:49.400Z,96171.00
2018-09-27T19:57:19.335Z,96167.00
2018-09-27T19:59:50.116Z,96159.00
2018-09-27T20:02:20.291Z,96158.00
2018-09-27T20:04:50.194Z,96157.00
2018-09-27T20:07:20.274Z,96161.00
2018-09-27T20:09:50.725Z,96178.00
2018-09-27T20:12:22.049Z,96168.00
2018-09-27T20:14:51.520Z,96166.00
2018-09-27T20:17:21.561Z,96160.00
2018-09-27T20:19:51.470Z,96161.00
2018-09-27T20:22:21.287Z,96158.00
2018-09-27T20:24:51.574Z,96160.00
2018-09-27T20:27:22.184Z,96164.00
2018-09-27T20:29:53.861Z,96152.00
2018-09-27T20:32:23.836Z,96153.00
2018-09-27T20:34:53.503Z,96154.00
2018-09-27T20:37:23.106Z,96140.00
2018-09-27T20:39:52.763Z,96143.00
2018-09-27T20:42:22.595Z,96144.00
2018-09-27T20:44:52.143Z,96148.00
2018-09-27T20:47:23.013Z,96140.00
2018-09-27T20:49:52.566Z,96141.00
2018-09-27T20:52:23.349Z,96141.00
2018-09-27T20:54:53.159Z,96134.00
2018-09-27T20:57:22.621Z,96139.00
2018-09-27T20:59:52.406Z,96132.00
2018-09-27T21:02:22.243Z,96121.00
2018-09-27T21:04:52.055Z,96114.00
2018-09-27T21:07:21.825Z,96119.00
2018-09-27T21:09:51.523Z,96119.00
2018-09-27T21:12:21.029Z,96114.00
2018-09-27T21:14:50.540Z,96113.00
2018-09-27T21:17:20.179Z,96111.00
2018-09-27T21:19:49.729Z,96106.00
2018-09-27T21:22:19.743Z,96108.00
2018-09-27T21:24:49.161Z,96116.00
2018-09-27T21:27:18.802Z,96118.00
2018-09-27T21:29:48.425Z,96120.00
2018-09-27T21:32:20.771Z,96112.00
2018-09-27T21:34:51.008Z,96116.00
2018-09-27T21:37:20.671Z,96112.00
2018-09-27T21:39:51.008Z,96117.00
2018-09-27T21:42:20.709Z,96112.00
2018-09-27T21:44:50.549Z,96106.00
2018-09-27T21:47:20.816Z,96105.00
2018-09-27T21:49:50.402Z,96114.00
2018-09-27T21:52:20.240Z,96110.00
2018-09-27T21:54:49.792Z,96109.00
2018-09-27T21:57:19.325Z,96108.00
2018-09-27T21:59:48.877Z,96107.00
2018-09-27T22:02:19.152Z,96112.00
2018-09-27T22:04:48.787Z,96111.00
2018-09-27T22:07:19.352Z,96112.00
2018-09-27T22:09:48.927Z,96126.00
2018-09-27T22:12:19.181Z,96119.00
2018-09-27T22:14:49.754Z,96126.00
2018-09-27T22:17:20.287Z,96118.00
2018-09-27T22:19:55.567Z,96115.00
2018-09-27T22:22:25.091Z,96107.00
2018-09-27T22:24:54.807Z,96106.00
2018-09-27T22:27:25.559Z,96109.00
2018-09-27T22:29:55.695Z,96112.00
2018-09-27T22:32:25.425Z,96109.00
2018-09-27T22:34:55.699Z,96108.00
2018-09-27T22:37:26.060Z,96103.00
2018-09-27T22:39:55.688Z,96096.00
2018-09-27T22:42:26.200Z,96098.00
2018-09-27T22:44:55.673Z,96095.00
2018-09-27T22:47:25.368Z,96097.00
2018-09-27T22:49:54.889Z,96088.00
2018-09-27T22:52:24.426Z,96081.00
2018-09-27T22:54:55.557Z,96078.00
2018-09-27T22:57:25.208Z,96075.00
2018-09-27T22:59:55.630Z,96079.00
2018-09-27T23:02:25.370Z,96084.00
2018-09-27T23:04:55.590Z,96091.00
2018-09-27T23:07:25.348Z,96084.00
2018-09-27T23:09:55.284Z,96083.00
2018-09-27T23:12:25.600Z,96087.00
2018-09-27T23:14:55.182Z,96079.00
2018-09-27T23:17:25.323Z,96078.00
2018-09-27T23:19:54.922Z,96074.00
2018-09-27T23:22:26.580Z,96067.00
2018-09-27T23:24:56.972Z,96079.00
2018-09-27T23:27:26.515Z,96075.00
2018-09-27T23:29:56.054Z,96080.00
2018-09-27T23:32:25.949Z,96074.00
2018-09-27T23:34:55.532Z,96074.00
2018-09-27T23:37:25.781Z,96071.00
2018-09-27T23:39:56.371Z,96068.00
2018-09-27T23:42:26.063Z,96067.00
2018-09-27T23:44:55.877Z,96060.00
2018-09-27T23:47:25.490Z,96067.00
2018-09-27T23:49:55.672Z,96069.00
2018-09-27T23:52:25.217Z,96062.00
2018-09-27T23:54:54.936Z,96060.00
2018-09-27T23:57:24.386Z,96063.00
2018-09-27T23:59:53.967Z,96056.00
